sensor_id;sensor_type;location;lat;lon;timestamp;temperature;humidity
6662;DHT22;3367;48.714;8.994;2023-07-28T00:02:11;15.60;1.00
6662;DHT22;3367;48.714;8.994;2023-07-28T00:04:38;15.50;1.00
6662;DHT22;3367;48.714;8.994;2023-07-28T00:07:05;15.50;1.00
6662;DHT22;3367;48.714;8.994;2023-07-28T00:09:34;15.40;1.00
6662;DHT22;3367;48.714;8.994;2023-07-28T00:12:01;15.30;1.00
6662;DHT22;3367;48.714;8.994;2023-07-28T00:14:28;15.20;95.90
6662;DHT22;3367;48.714;8.994;2023-07-28T00:16:56;15.20;99.90
6662;DHT22;3367;48.714;8.994;2023-07-28T00:19:24;15.00;99.90
6662;DHT22;3367;48.714;8.994;2023-07-28T00:21:51;15.10;99.90
6662;DHT22;3367;48.714;8.994;2023-07-28T00:24:18;15.10;99.90
6662;DHT22;3367;48.714;8.994;2023-07-28T00:26:46;15.10;99.90
6662;DHT22;3367;48.714;8.994;2023-07-28T00:29:13;15.00;99.90
6662;DHT22;3367;48.714;8.994;2023-07-28T00:31:40;15.00;99.90
6662;DHT22;3367;48.714;8.994;2023-07-28T00:34:07;15.00;99.90
6662;DHT22;3367;48.714;8.994;2023-07-28T00:36:34;15.00;99.90
6662;DHT22;3367;48.714;8.994;2023-07-28T00:39:01;14.90;99.90
6662;DHT22;3367;48.714;8.994;2023-07-28T00:41:29;14.90;99.90
6662;DHT22;3367;48.714;8.994;2023-07-28T00:43:57;14.90;99.90
6662;DHT22;3367;48.714;8.994;2023-07-28T00:46:25;14.80;99.90
6662;DHT22;3367;48.714;8.994;2023-07-28T00:48:52;14.80;99.90
6662;DHT22;3367;48.714;8.994;2023-07-28T00:51:21;14.80;99.90
6662;DHT22;3367;48.714;8.994;2023-07-28T00:53:48;14.80;99.90
6662;DHT22;3367;48.714;8.994;2023-07-28T00:56:15;14.80;99.90
6662;DHT22;3367;48.714;8.994;2023-07-28T00:58:42;14.70;99.90
6662;DHT22;3367;48.714;8.994;2023-07-28T01:01:11;14.70;99.90
6662;DHT22;3367;48.714;8.994;2023-07-28T01:03:38;14.70;99.90
6662;DHT22;3367;48.714;8.994;2023-07-28T01:06:18;14.70;99.90
6662;DHT22;3367;48.714;8.994;2023-07-28T01:08:51;14.70;99.90
6662;DHT22;3367;48.714;8.994;2023-07-28T01:11:22;14.60;99.90
6662;DHT22;3367;48.714;8.994;2023-07-28T01:13:49;14.60;99.90
6662;DHT22;3367;48.714;8.994;2023-07-28T01:16:17;14.60;99.90
6662;DHT22;3367;48.714;8.994;2023-07-28T01:18:44;14.60;99.90
6662;DHT22;3367;48.714;8.994;2023-07-28T01:21:19;14.50;99.90
6662;DHT22;3367;48.714;8.994;2023-07-28T01:23:55;14.50;99.90
6662;DHT22;3367;48.714;8.994;2023-07-28T01:26:30;14.40;99.90
6662;DHT22;3367;48.714;8.994;2023-07-28T01:28:58;14.40;99.90
6662;DHT22;3367;48.714;8.994;2023-07-28T01:31:26;14.40;99.90
6662;DHT22;3367;48.714;8.994;2023-07-28T01:33:53;14.40;99.90
6662;DHT22;3367;48.714;8.994;2023-07-28T01:36:19;14.20;99.90
6662;DHT22;3367;48.714;8.994;2023-07-28T01:38:46;14.30;99.90
6662;DHT22;3367;48.714;8.994;2023-07-28T01:41:15;14.30;99.90
6662;DHT22;3367;48.714;8.994;2023-07-28T01:43:44;14.30;99.90
6662;DHT22;3367;48.714;8.994;2023-07-28T01:46:11;14.30;1.00
6662;DHT22;3367;48.714;8.994;2023-07-28T01:48:38;14.20;1.00
6662;DHT22;3367;48.714;8.994;2023-07-28T01:51:05;14.20;1.00
6662;DHT22;3367;48.714;8.994;2023-07-28T01:53:32;14.20;1.00
6662;DHT22;3367;48.714;8.994;2023-07-28T01:55:59;14.20;1.00
6662;DHT22;3367;48.714;8.994;2023-07-28T01:58:27;14.30;1.00
6662;DHT22;3367;48.714;8.994;2023-07-28T02:00:56;14.20;1.00
6662;DHT22;3367;48.714;8.994;2023-07-28T02:03:23;14.20;1.00
6662;DHT22;3367;48.714;8.994;2023-07-28T02:05:50;14.20;1.00
6662;DHT22;3367;48.714;8.994;2023-07-28T02:08:18;14.20;1.00
6662;DHT22;3367;48.714;8.994;2023-07-28T02:10:45;14.20;1.00
6662;DHT22;3367;48.714;8.994;2023-07-28T02:13:12;14.20;1.00
6662;DHT22;3367;48.714;8.994;2023-07-28T02:15:39;14.30;1.00
6662;DHT22;3367;48.714;8.994;2023-07-28T02:18:08;14.20;1.00
6662;DHT22;3367;48.714;8.994;2023-07-28T02:20:35;14.10;1.00
6662;DHT22;3367;48.714;8.994;2023-07-28T02:23:03;14.20;1.00
6662;DHT22;3367;48.714;8.994;2023-07-28T02:25:30;14.10;1.00
6662;DHT22;3367;48.714;8.994;2023-07-28T02:27:57;14.10;1.00
6662;DHT22;3367;48.714;8.994;2023-07-28T02:30:24;14.10;1.00
6662;DHT22;3367;48.714;8.994;2023-07-28T02:32:51;14.00;1.00
6662;DHT22;3367;48.714;8.994;2023-07-28T02:35:20;14.00;1.00
6662;DHT22;3367;48.714;8.994;2023-07-28T02:37:47;14.00;1.00
6662;DHT22;3367;48.714;8.994;2023-07-28T02:40:14;14.00;1.00
6662;DHT22;3367;48.714;8.994;2023-07-28T02:42:41;14.00;1.00
6662;DHT22;3367;48.714;8.994;2023-07-28T02:45:09;14.00;1.00
6662;DHT22;3367;48.714;8.994;2023-07-28T02:47:36;14.00;1.00
6662;DHT22;3367;48.714;8.994;2023-07-28T02:50:04;13.90;1.00
6662;DHT22;3367;48.714;8.994;2023-07-28T02:52:32;14.00;1.00
6662;DHT22;3367;48.714;8.994;2023-07-28T02:54:59;14.00;1.00
6662;DHT22;3367;48.714;8.994;2023-07-28T02:57:26;14.00;1.00
6662;DHT22;3367;48.714;8.994;2023-07-28T02:59:53;14.10;1.00
6662;DHT22;3367;48.714;8.994;2023-07-28T03:02:20;14.10;1.00
6662;DHT22;3367;48.714;8.994;2023-07-28T03:04:47;14.10;1.00
6662;DHT22;3367;48.714;8.994;2023-07-28T03:07:14;14.20;1.00
6662;DHT22;3367;48.714;8.994;2023-07-28T03:09:43;14.20;1.00
6662;DHT22;3367;48.714;8.994;2023-07-28T03:12:11;14.20;1.00
6662;DHT22;3367;48.714;8.994;2023-07-28T03:14:38;14.30;1.00
6662;DHT22;3367;48.714;8.994;2023-07-28T03:17:05;14.20;1.00
6662;DHT22;3367;48.714;8.994;2023-07-28T03:19:32;14.40;1.00
6662;DHT22;3367;48.714;8.994;2023-07-28T03:21:59;14.40;1.00
6662;DHT22;3367;48.714;8.994;2023-07-28T03:24:26;14.40;1.00
6662;DHT22;3367;48.714;8.994;2023-07-28T03:26:56;14.60;1.00
6662;DHT22;3367;48.714;8.994;2023-07-28T03:29:23;14.50;1.00
6662;DHT22;3367;48.714;8.994;2023-07-28T03:31:50;14.70;1.00
6662;DHT22;3367;48.714;8.994;2023-07-28T03:34:17;14.70;1.00
6662;DHT22;3367;48.714;8.994;2023-07-28T03:36:45;14.90;1.00
6662;DHT22;3367;48.714;8.994;2023-07-28T03:39:11;15.00;1.00
6662;DHT22;3367;48.714;8.994;2023-07-28T03:41:38;15.00;1.00
6662;DHT22;3367;48.714;8.994;2023-07-28T03:44:07;15.00;1.00
6662;DHT22;3367;48.714;8.994;2023-07-28T03:46:34;15.10;99.90
6662;DHT22;3367;48.714;8.994;2023-07-28T03:49:01;15.20;99.90
6662;DHT22;3367;48.714;8.994;2023-07-28T03:51:28;15.20;99.90
6662;DHT22;3367;48.714;8.994;2023-07-28T03:53:55;15.30;99.90
6662;DHT22;3367;48.714;8.994;2023-07-28T03:56:22;15.30;99.90
6662;DHT22;3367;48.714;8.994;2023-07-28T03:58:51;15.40;99.90
6662;DHT22;3367;48.714;8.994;2023-07-28T04:01:22;15.30;15.40
6662;DHT22;3367;48.714;8.994;2023-07-28T04:03:49;15.40;1.00
6662;DHT22;3367;48.714;8.994;2023-07-28T04:06:16;15.50;1.00
6662;DHT22;3367;48.714;8.994;2023-07-28T04:08:43;15.50;1.00
6662;DHT22;3367;48.714;8.994;2023-07-28T04:11:10;15.50;1.00
6662;DHT22;3367;48.714;8.994;2023-07-28T04:13:37;15.60;1.00
6662;DHT22;3367;48.714;8.994;2023-07-28T04:16:04;15.50;1.00
6662;DHT22;3367;48.714;8.994;2023-07-28T04:18:34;15.50;1.00
6662;DHT22;3367;48.714;8.994;2023-07-28T04:21:00;15.60;1.00
6662;DHT22;3367;48.714;8.994;2023-07-28T04:23:27;15.50;1.00
6662;DHT22;3367;48.714;8.994;2023-07-28T04:25:54;15.60;1.00
6662;DHT22;3367;48.714;8.994;2023-07-28T04:28:21;15.50;1.00
6662;DHT22;3367;48.714;8.994;2023-07-28T04:30:50;15.60;1.00
6662;DHT22;3367;48.714;8.994;2023-07-28T04:33:17;15.60;1.00
6662;DHT22;3367;48.714;8.994;2023-07-28T04:35:50;15.60;1.00
6662;DHT22;3367;48.714;8.994;2023-07-28T04:38:17;15.60;1.00
6662;DHT22;3367;48.714;8.994;2023-07-28T04:40:51;15.70;1.00
6662;DHT22;3367;48.714;8.994;2023-07-28T04:43:26;15.60;1.00
6662;DHT22;3367;48.714;8.994;2023-07-28T04:46:19;15.60;1.00
6662;DHT22;3367;48.714;8.994;2023-07-28T04:49:00;15.70;1.00
6662;DHT22;3367;48.714;8.994;2023-07-28T04:55:08;15.60;1.00
6662;DHT22;3367;48.714;8.994;2023-07-28T04:57:35;15.60;60.60
6662;DHT22;3367;48.714;8.994;2023-07-28T05:00:01;15.70;20.50
6662;DHT22;3367;48.714;8.994;2023-07-28T05:02:29;15.70;71.70
6662;DHT22;3367;48.714;8.994;2023-07-28T05:04:56;15.70;99.90
6662;DHT22;3367;48.714;8.994;2023-07-28T05:07:22;15.70;99.90
6662;DHT22;3367;48.714;8.994;2023-07-28T05:09:49;15.80;99.90
6662;DHT22;3367;48.714;8.994;2023-07-28T05:12:17;15.70;99.90
6662;DHT22;3367;48.714;8.994;2023-07-28T05:14:44;15.70;99.90
6662;DHT22;3367;48.714;8.994;2023-07-28T05:17:10;15.70;99.90
6662;DHT22;3367;48.714;8.994;2023-07-28T05:19:37;15.70;99.90
6662;DHT22;3367;48.714;8.994;2023-07-28T05:22:04;15.70;99.90
6662;DHT22;3367;48.714;8.994;2023-07-28T05:24:32;15.70;1.00
6662;DHT22;3367;48.714;8.994;2023-07-28T05:26:59;15.80;1.00
6662;DHT22;3367;48.714;8.994;2023-07-28T05:29:27;15.80;1.00
6662;DHT22;3367;48.714;8.994;2023-07-28T05:31:54;15.80;1.00
6662;DHT22;3367;48.714;8.994;2023-07-28T05:34:20;15.90;1.00
6662;DHT22;3367;48.714;8.994;2023-07-28T05:36:47;15.90;1.00
6662;DHT22;3367;48.714;8.994;2023-07-28T05:39:14;15.90;1.00
6662;DHT22;3367;48.714;8.994;2023-07-28T05:41:40;16.00;1.00
6662;DHT22;3367;48.714;8.994;2023-07-28T05:44:07;16.00;1.00
6662;DHT22;3367;48.714;8.994;2023-07-28T05:46:35;16.10;1.00
6662;DHT22;3367;48.714;8.994;2023-07-28T05:49:02;16.10;1.00
6662;DHT22;3367;48.714;8.994;2023-07-28T05:51:28;16.20;1.00
6662;DHT22;3367;48.714;8.994;2023-07-28T05:53:55;16.20;1.00
6662;DHT22;3367;48.714;8.994;2023-07-28T05:56:22;16.20;9.90
6662;DHT22;3367;48.714;8.994;2023-07-28T05:58:49;16.30;58.00
6662;DHT22;3367;48.714;8.994;2023-07-28T06:01:16;16.30;80.30
6662;DHT22;3367;48.714;8.994;2023-07-28T06:03:44;16.30;90.20
6662;DHT22;3367;48.714;8.994;2023-07-28T06:06:11;16.30;99.80
6662;DHT22;3367;48.714;8.994;2023-07-28T06:08:38;16.30;87.70
6662;DHT22;3367;48.714;8.994;2023-07-28T06:11:06;16.30;99.90
6662;DHT22;3367;48.714;8.994;2023-07-28T06:13:32;16.30;99.90
6662;DHT22;3367;48.714;8.994;2023-07-28T06:15:59;16.30;99.90
6662;DHT22;3367;48.714;8.994;2023-07-28T06:18:26;16.40;99.90
6662;DHT22;3367;48.714;8.994;2023-07-28T06:20:54;16.40;99.90
6662;DHT22;3367;48.714;8.994;2023-07-28T06:23:20;16.50;99.90
6662;DHT22;3367;48.714;8.994;2023-07-28T06:25:47;16.50;99.90
6662;DHT22;3367;48.714;8.994;2023-07-28T06:28:14;16.60;99.90
6662;DHT22;3367;48.714;8.994;2023-07-28T06:30:41;16.70;99.90
6662;DHT22;3367;48.714;8.994;2023-07-28T06:33:09;16.70;99.90
6662;DHT22;3367;48.714;8.994;2023-07-28T06:35:36;16.90;99.90
6662;DHT22;3367;48.714;8.994;2023-07-28T06:38:04;16.90;99.90
6662;DHT22;3367;48.714;8.994;2023-07-28T06:40:31;17.00;19.70
6662;DHT22;3367;48.714;8.994;2023-07-28T06:42:58;17.00;1.00
6662;DHT22;3367;48.714;8.994;2023-07-28T06:45:24;17.00;1.00
6662;DHT22;3367;48.714;8.994;2023-07-28T06:47:51;17.00;1.00
6662;DHT22;3367;48.714;8.994;2023-07-28T06:50:18;17.00;1.00
6662;DHT22;3367;48.714;8.994;2023-07-28T06:52:45;17.00;99.90
6662;DHT22;3367;48.714;8.994;2023-07-28T06:55:14;17.20;99.90
6662;DHT22;3367;48.714;8.994;2023-07-28T06:57:41;17.20;99.90
6662;DHT22;3367;48.714;8.994;2023-07-28T07:00:09;17.30;64.30
6662;DHT22;3367;48.714;8.994;2023-07-28T07:02:36;17.40;1.00
6662;DHT22;3367;48.714;8.994;2023-07-28T07:05:03;17.40;1.00
6662;DHT22;3367;48.714;8.994;2023-07-28T07:07:31;17.50;1.00
6662;DHT22;3367;48.714;8.994;2023-07-28T07:09:57;17.60;1.00
6662;DHT22;3367;48.714;8.994;2023-07-28T07:12:26;17.70;1.00
6662;DHT22;3367;48.714;8.994;2023-07-28T07:14:52;17.80;1.00
6662;DHT22;3367;48.714;8.994;2023-07-28T07:17:19;17.90;1.00
6662;DHT22;3367;48.714;8.994;2023-07-28T07:19:46;18.10;1.00
6662;DHT22;3367;48.714;8.994;2023-07-28T07:22:13;18.20;1.00
6662;DHT22;3367;48.714;8.994;2023-07-28T07:24:39;18.30;1.00
6662;DHT22;3367;48.714;8.994;2023-07-28T07:27:06;18.50;1.00
6662;DHT22;3367;48.714;8.994;2023-07-28T07:29:37;18.50;99.90
6662;DHT22;3367;48.714;8.994;2023-07-28T07:32:05;18.70;1.00
6662;DHT22;3367;48.714;8.994;2023-07-28T07:34:33;18.80;1.00
6662;DHT22;3367;48.714;8.994;2023-07-28T07:37:02;18.90;1.00
6662;DHT22;3367;48.714;8.994;2023-07-28T07:39:29;18.90;1.00
6662;DHT22;3367;48.714;8.994;2023-07-28T07:41:56;18.90;1.00
6662;DHT22;3367;48.714;8.994;2023-07-28T07:44:23;18.80;99.90
6662;DHT22;3367;48.714;8.994;2023-07-28T07:46:51;18.80;1.00
6662;DHT22;3367;48.714;8.994;2023-07-28T07:49:18;18.80;1.00
6662;DHT22;3367;48.714;8.994;2023-07-28T07:51:44;18.80;1.00
6662;DHT22;3367;48.714;8.994;2023-07-28T07:54:11;18.80;1.00
6662;DHT22;3367;48.714;8.994;2023-07-28T07:56:41;18.80;1.00
6662;DHT22;3367;48.714;8.994;2023-07-28T07:59:07;19.00;1.00
6662;DHT22;3367;48.714;8.994;2023-07-28T08:01:34;19.10;1.00
6662;DHT22;3367;48.714;8.994;2023-07-28T08:04:02;19.10;1.00
6662;DHT22;3367;48.714;8.994;2023-07-28T08:06:29;19.30;1.00
6662;DHT22;3367;48.714;8.994;2023-07-28T08:08:56;19.50;1.00
6662;DHT22;3367;48.714;8.994;2023-07-28T08:11:24;19.70;1.00
6662;DHT22;3367;48.714;8.994;2023-07-28T08:13:51;19.80;1.00
6662;DHT22;3367;48.714;8.994;2023-07-28T08:16:18;20.00;99.90
6662;DHT22;3367;48.714;8.994;2023-07-28T08:18:45;20.30;99.90
6662;DHT22;3367;48.714;8.994;2023-07-28T08:21:13;20.50;99.90
6662;DHT22;3367;48.714;8.994;2023-07-28T08:23:40;20.60;1.00
6662;DHT22;3367;48.714;8.994;2023-07-28T08:26:07;20.80;1.00
6662;DHT22;3367;48.714;8.994;2023-07-28T08:28:33;21.00;1.00
6662;DHT22;3367;48.714;8.994;2023-07-28T08:31:00;21.10;1.00
6662;DHT22;3367;48.714;8.994;2023-07-28T08:33:27;21.10;99.90
6662;DHT22;3367;48.714;8.994;2023-07-28T08:35:54;21.10;1.00
6662;DHT22;3367;48.714;8.994;2023-07-28T08:38:22;21.30;99.90
6662;DHT22;3367;48.714;8.994;2023-07-28T08:40:48;21.40;99.90
6662;DHT22;3367;48.714;8.994;2023-07-28T08:43:15;21.60;99.90
6662;DHT22;3367;48.714;8.994;2023-07-28T08:45:42;21.60;1.00
6662;DHT22;3367;48.714;8.994;2023-07-28T08:48:09;21.70;1.00
6662;DHT22;3367;48.714;8.994;2023-07-28T08:50:36;21.80;1.00
6662;DHT22;3367;48.714;8.994;2023-07-28T08:53:02;22.30;1.00
6662;DHT22;3367;48.714;8.994;2023-07-28T08:55:30;22.40;1.00
6662;DHT22;3367;48.714;8.994;2023-07-28T08:58:13;22.60;1.00
6662;DHT22;3367;48.714;8.994;2023-07-28T09:00:40;22.60;1.00
6662;DHT22;3367;48.714;8.994;2023-07-28T09:03:08;22.60;99.90
6662;DHT22;3367;48.714;8.994;2023-07-28T09:05:35;22.50;69.80
6662;DHT22;3367;48.714;8.994;2023-07-28T09:08:02;22.20;1.00
6662;DHT22;3367;48.714;8.994;2023-07-28T09:10:40;22.20;1.00
6662;DHT22;3367;48.714;8.994;2023-07-28T09:13:09;22.30;1.00
6662;DHT22;3367;48.714;8.994;2023-07-28T09:15:36;22.50;1.00
6662;DHT22;3367;48.714;8.994;2023-07-28T09:18:02;22.70;1.00
6662;DHT22;3367;48.714;8.994;2023-07-28T09:20:34;22.60;1.00
6662;DHT22;3367;48.714;8.994;2023-07-28T09:23:01;22.50;1.00
6662;DHT22;3367;48.714;8.994;2023-07-28T09:25:29;22.50;1.00
6662;DHT22;3367;48.714;8.994;2023-07-28T09:27:57;22.50;1.00
6662;DHT22;3367;48.714;8.994;2023-07-28T09:30:24;22.60;1.00
6662;DHT22;3367;48.714;8.994;2023-07-28T09:32:53;22.50;1.00
6662;DHT22;3367;48.714;8.994;2023-07-28T09:35:21;22.50;1.00
6662;DHT22;3367;48.714;8.994;2023-07-28T09:37:49;22.30;1.00
6662;DHT22;3367;48.714;8.994;2023-07-28T09:40:20;22.30;1.00
6662;DHT22;3367;48.714;8.994;2023-07-28T09:42:48;22.20;1.00
6662;DHT22;3367;48.714;8.994;2023-07-28T09:45:17;22.20;1.00
6662;DHT22;3367;48.714;8.994;2023-07-28T09:47:45;22.30;1.00
6662;DHT22;3367;48.714;8.994;2023-07-28T09:50:14;22.50;1.00
6662;DHT22;3367;48.714;8.994;2023-07-28T09:52:42;22.60;1.00
6662;DHT22;3367;48.714;8.994;2023-07-28T09:55:10;22.60;1.00
6662;DHT22;3367;48.714;8.994;2023-07-28T09:57:44;22.50;1.00
6662;DHT22;3367;48.714;8.994;2023-07-28T10:00:13;22.30;1.00
6662;DHT22;3367;48.714;8.994;2023-07-28T10:02:43;22.30;1.00
6662;DHT22;3367;48.714;8.994;2023-07-28T10:05:10;22.30;1.00
6662;DHT22;3367;48.714;8.994;2023-07-28T10:07:40;22.40;1.00
6662;DHT22;3367;48.714;8.994;2023-07-28T10:10:10;22.30;1.00
6662;DHT22;3367;48.714;8.994;2023-07-28T10:12:41;22.30;1.00
6662;DHT22;3367;48.714;8.994;2023-07-28T10:15:13;22.30;1.00
6662;DHT22;3367;48.714;8.994;2023-07-28T10:17:45;22.30;1.00
6662;DHT22;3367;48.714;8.994;2023-07-28T10:20:38;22.20;1.00
6662;DHT22;3367;48.714;8.994;2023-07-28T10:23:06;22.10;1.00
6662;DHT22;3367;48.714;8.994;2023-07-28T10:25:35;22.10;1.00
6662;DHT22;3367;48.714;8.994;2023-07-28T10:28:02;22.20;1.00
6662;DHT22;3367;48.714;8.994;2023-07-28T10:30:37;22.20;1.00
6662;DHT22;3367;48.714;8.994;2023-07-28T10:33:06;22.30;1.00
6662;DHT22;3367;48.714;8.994;2023-07-28T10:35:34;22.30;1.00
6662;DHT22;3367;48.714;8.994;2023-07-28T10:38:28;22.50;1.00
6662;DHT22;3367;48.714;8.994;2023-07-28T10:41:09;22.60;1.00
6662;DHT22;3367;48.714;8.994;2023-07-28T10:43:36;22.70;1.00
6662;DHT22;3367;48.714;8.994;2023-07-28T10:46:04;22.80;1.00
6662;DHT22;3367;48.714;8.994;2023-07-28T10:48:34;23.10;1.00
6662;DHT22;3367;48.714;8.994;2023-07-28T10:51:01;23.20;1.00
6662;DHT22;3367;48.714;8.994;2023-07-28T10:53:28;23.40;1.00
6662;DHT22;3367;48.714;8.994;2023-07-28T10:55:54;23.60;1.00
6662;DHT22;3367;48.714;8.994;2023-07-28T10:58:21;23.70;1.00
6662;DHT22;3367;48.714;8.994;2023-07-28T11:00:50;23.80;1.00
6662;DHT22;3367;48.714;8.994;2023-07-28T11:03:17;23.90;1.00
6662;DHT22;3367;48.714;8.994;2023-07-28T11:05:48;24.10;1.00
6662;DHT22;3367;48.714;8.994;2023-07-28T11:08:16;24.00;1.00
6662;DHT22;3367;48.714;8.994;2023-07-28T11:10:43;23.80;1.00
6662;DHT22;3367;48.714;8.994;2023-07-28T11:13:10;23.80;1.00
6662;DHT22;3367;48.714;8.994;2023-07-28T11:15:37;23.60;1.00
6662;DHT22;3367;48.714;8.994;2023-07-28T11:18:04;23.40;1.00
6662;DHT22;3367;48.714;8.994;2023-07-28T11:20:31;23.30;1.00
6662;DHT22;3367;48.714;8.994;2023-07-28T11:23:01;23.30;1.00
6662;DHT22;3367;48.714;8.994;2023-07-28T11:25:29;23.40;1.00
6662;DHT22;3367;48.714;8.994;2023-07-28T11:27:57;23.50;1.00
6662;DHT22;3367;48.714;8.994;2023-07-28T11:30:24;23.70;1.00
6662;DHT22;3367;48.714;8.994;2023-07-28T11:32:52;23.70;1.00
6662;DHT22;3367;48.714;8.994;2023-07-28T11:35:20;23.80;1.00
6662;DHT22;3367;48.714;8.994;2023-07-28T11:37:49;23.70;1.00
6662;DHT22;3367;48.714;8.994;2023-07-28T11:40:19;23.60;1.00
6662;DHT22;3367;48.714;8.994;2023-07-28T11:42:48;23.40;1.00
6662;DHT22;3367;48.714;8.994;2023-07-28T11:45:17;23.30;1.00
6662;DHT22;3367;48.714;8.994;2023-07-28T11:48:00;22.80;1.00
6662;DHT22;3367;48.714;8.994;2023-07-28T11:50:28;22.30;1.00
6662;DHT22;3367;48.714;8.994;2023-07-28T11:52:57;21.90;1.00
6662;DHT22;3367;48.714;8.994;2023-07-28T11:55:25;21.70;28.30
6662;DHT22;3367;48.714;8.994;2023-07-28T11:57:53;21.60;67.60
6662;DHT22;3367;48.714;8.994;2023-07-28T12:00:24;21.70;40.20
6662;DHT22;3367;48.714;8.994;2023-07-28T12:03:06;21.80;99.90
6662;DHT22;3367;48.714;8.994;2023-07-28T12:05:35;22.00;85.70
6662;DHT22;3367;48.714;8.994;2023-07-28T12:08:03;22.00;86.70
6662;DHT22;3367;48.714;8.994;2023-07-28T12:10:31;21.90;1.00
6662;DHT22;3367;48.714;8.994;2023-07-28T12:13:03;22.00;1.00
6662;DHT22;3367;48.714;8.994;2023-07-28T12:15:31;22.10;1.00
6662;DHT22;3367;48.714;8.994;2023-07-28T12:18:04;22.20;1.00
6662;DHT22;3367;48.714;8.994;2023-07-28T12:20:34;22.30;99.90
6662;DHT22;3367;48.714;8.994;2023-07-28T12:23:01;22.30;1.00
6662;DHT22;3367;48.714;8.994;2023-07-28T12:25:27;22.40;1.00
6662;DHT22;3367;48.714;8.994;2023-07-28T12:27:56;22.40;1.00
6662;DHT22;3367;48.714;8.994;2023-07-28T12:30:23;22.50;1.00
6662;DHT22;3367;48.714;8.994;2023-07-28T12:32:49;22.70;1.00
6662;DHT22;3367;48.714;8.994;2023-07-28T12:35:16;23.00;1.00
6662;DHT22;3367;48.714;8.994;2023-07-28T12:37:44;23.20;1.00
6662;DHT22;3367;48.714;8.994;2023-07-28T12:40:11;23.50;1.00
6662;DHT22;3367;48.714;8.994;2023-07-28T12:42:38;23.70;1.00
6662;DHT22;3367;48.714;8.994;2023-07-28T12:45:07;23.60;1.00
6662;DHT22;3367;48.714;8.994;2023-07-28T12:47:35;23.50;1.00
6662;DHT22;3367;48.714;8.994;2023-07-28T12:50:02;23.50;1.00
6662;DHT22;3367;48.714;8.994;2023-07-28T12:52:29;23.60;1.00
6662;DHT22;3367;48.714;8.994;2023-07-28T12:54:56;23.50;1.00
6662;DHT22;3367;48.714;8.994;2023-07-28T12:57:24;23.50;1.00
6662;DHT22;3367;48.714;8.994;2023-07-28T12:59:50;23.40;1.00
6662;DHT22;3367;48.714;8.994;2023-07-28T13:02:18;23.40;1.00
6662;DHT22;3367;48.714;8.994;2023-07-28T13:04:45;23.20;1.00
6662;DHT22;3367;48.714;8.994;2023-07-28T13:07:12;23.00;1.00
6662;DHT22;3367;48.714;8.994;2023-07-28T13:09:39;22.80;1.00
6662;DHT22;3367;48.714;8.994;2023-07-28T13:12:07;22.60;1.00
6662;DHT22;3367;48.714;8.994;2023-07-28T13:14:34;22.30;1.00
6662;DHT22;3367;48.714;8.994;2023-07-28T13:17:00;22.00;79.30
6662;DHT22;3367;48.714;8.994;2023-07-28T13:19:28;21.90;99.90
6662;DHT22;3367;48.714;8.994;2023-07-28T13:21:55;21.80;99.90
6662;DHT22;3367;48.714;8.994;2023-07-28T13:24:22;21.50;99.90
6662;DHT22;3367;48.714;8.994;2023-07-28T13:26:48;21.10;1.00
6662;DHT22;3367;48.714;8.994;2023-07-28T13:29:15;20.80;1.00
6662;DHT22;3367;48.714;8.994;2023-07-28T13:31:42;20.60;1.00
6662;DHT22;3367;48.714;8.994;2023-07-28T13:34:08;20.40;99.90
6662;DHT22;3367;48.714;8.994;2023-07-28T13:36:36;20.10;1.00
6662;DHT22;3367;48.714;8.994;2023-07-28T13:39:03;19.90;99.90
6662;DHT22;3367;48.714;8.994;2023-07-28T13:41:31;19.70;1.00
6662;DHT22;3367;48.714;8.994;2023-07-28T13:43:58;19.70;99.90
6662;DHT22;3367;48.714;8.994;2023-07-28T13:46:24;19.50;74.70
6662;DHT22;3367;48.714;8.994;2023-07-28T13:48:51;19.40;1.00
6662;DHT22;3367;48.714;8.994;2023-07-28T13:51:18;19.20;1.00
6662;DHT22;3367;48.714;8.994;2023-07-28T13:53:46;19.00;1.00
6662;DHT22;3367;48.714;8.994;2023-07-28T13:56:13;18.80;1.00
6662;DHT22;3367;48.714;8.994;2023-07-28T13:58:39;18.60;1.00
6662;DHT22;3367;48.714;8.994;2023-07-28T14:01:06;18.70;61.90
6662;DHT22;3367;48.714;8.994;2023-07-28T14:03:33;18.70;99.90
6662;DHT22;3367;48.714;8.994;2023-07-28T14:05:59;18.70;99.90
6662;DHT22;3367;48.714;8.994;2023-07-28T14:08:26;18.70;99.90
6662;DHT22;3367;48.714;8.994;2023-07-28T14:10:55;18.60;1.00
6662;DHT22;3367;48.714;8.994;2023-07-28T14:13:22;18.60;97.70
6662;DHT22;3367;48.714;8.994;2023-07-28T14:15:50;18.70;99.90
6662;DHT22;3367;48.714;8.994;2023-07-28T14:18:16;18.70;99.90
6662;DHT22;3367;48.714;8.994;2023-07-28T14:20:43;18.80;99.90
6662;DHT22;3367;48.714;8.994;2023-07-28T14:23:24;18.90;99.90
6662;DHT22;3367;48.714;8.994;2023-07-28T14:25:51;18.90;99.90
6662;DHT22;3367;48.714;8.994;2023-07-28T14:28:20;18.90;99.90
6662;DHT22;3367;48.714;8.994;2023-07-28T14:30:47;19.00;99.90
6662;DHT22;3367;48.714;8.994;2023-07-28T14:33:14;19.10;99.90
6662;DHT22;3367;48.714;8.994;2023-07-28T14:35:42;19.10;99.90
6662;DHT22;3367;48.714;8.994;2023-07-28T14:38:09;19.10;99.90
6662;DHT22;3367;48.714;8.994;2023-07-28T14:40:36;19.20;99.90
6662;DHT22;3367;48.714;8.994;2023-07-28T14:43:03;19.30;99.90
6662;DHT22;3367;48.714;8.994;2023-07-28T14:45:31;19.30;99.90
6662;DHT22;3367;48.714;8.994;2023-07-28T14:47:58;19.40;1.00
6662;DHT22;3367;48.714;8.994;2023-07-28T14:50:25;19.40;1.00
6662;DHT22;3367;48.714;8.994;2023-07-28T14:52:53;19.50;1.00
6662;DHT22;3367;48.714;8.994;2023-07-28T14:55:19;19.50;99.90
6662;DHT22;3367;48.714;8.994;2023-07-28T14:57:46;19.50;1.00
6662;DHT22;3367;48.714;8.994;2023-07-28T15:00:13;19.70;1.00
6662;DHT22;3367;48.714;8.994;2023-07-28T15:02:41;19.90;53.90
6662;DHT22;3367;48.714;8.994;2023-07-28T15:05:08;20.00;1.00
6662;DHT22;3367;48.714;8.994;2023-07-28T15:07:35;20.10;1.00
6662;DHT22;3367;48.714;8.994;2023-07-28T15:10:02;20.30;99.90
6662;DHT22;3367;48.714;8.994;2023-07-28T15:12:30;20.50;99.90
6662;DHT22;3367;48.714;8.994;2023-07-28T15:14:57;20.60;73.70
6662;DHT22;3367;48.714;8.994;2023-07-28T15:17:24;20.60;6.70
6662;DHT22;3367;48.714;8.994;2023-07-28T15:19:52;20.60;1.00
6662;DHT22;3367;48.714;8.994;2023-07-28T15:22:18;20.60;1.00
6662;DHT22;3367;48.714;8.994;2023-07-28T15:24:45;20.60;1.00
6662;DHT22;3367;48.714;8.994;2023-07-28T15:27:12;20.50;99.90
6662;DHT22;3367;48.714;8.994;2023-07-28T15:29:38;20.40;1.00
6662;DHT22;3367;48.714;8.994;2023-07-28T15:32:05;20.20;1.00
6662;DHT22;3367;48.714;8.994;2023-07-28T15:34:32;20.20;1.00
6662;DHT22;3367;48.714;8.994;2023-07-28T15:37:01;20.10;1.00
6662;DHT22;3367;48.714;8.994;2023-07-28T15:39:29;20.10;96.60
6662;DHT22;3367;48.714;8.994;2023-07-28T15:41:56;20.10;97.10
6662;DHT22;3367;48.714;8.994;2023-07-28T15:44:23;20.00;99.90
6662;DHT22;3367;48.714;8.994;2023-07-28T15:46:50;20.10;99.90
6662;DHT22;3367;48.714;8.994;2023-07-28T15:49:18;20.00;99.90
6662;DHT22;3367;48.714;8.994;2023-07-28T15:51:45;20.10;99.90
6662;DHT22;3367;48.714;8.994;2023-07-28T15:54:13;20.10;99.90
6662;DHT22;3367;48.714;8.994;2023-07-28T15:56:40;20.00;99.90
6662;DHT22;3367;48.714;8.994;2023-07-28T15:59:06;19.90;1.00
6662;DHT22;3367;48.714;8.994;2023-07-28T16:01:33;19.90;99.90
6662;DHT22;3367;48.714;8.994;2023-07-28T16:04:00;19.90;8.40
6662;DHT22;3367;48.714;8.994;2023-07-28T16:06:27;19.80;12.70
6662;DHT22;3367;48.714;8.994;2023-07-28T16:08:53;19.90;99.90
6662;DHT22;3367;48.714;8.994;2023-07-28T16:11:21;19.90;99.90
6662;DHT22;3367;48.714;8.994;2023-07-28T16:13:48;19.90;99.90
6662;DHT22;3367;48.714;8.994;2023-07-28T16:16:15;19.90;1.00
6662;DHT22;3367;48.714;8.994;2023-07-28T16:18:42;19.90;1.00
6662;DHT22;3367;48.714;8.994;2023-07-28T16:21:08;19.90;99.90